createdAt,value
2022-12-14T00:00:00.229Z,53.10
2022-12-14T00:01:00.686Z,54.70
2022-12-14T00:02:01.023Z,51.70
2022-12-14T00:03:01.486Z,51.20
2022-12-14T00:04:01.914Z,51.10
2022-12-14T00:05:02.355Z,52.10
2022-12-14T00:06:02.592Z,48.60
2022-12-14T00:07:03.077Z,51.60
2022-12-14T00:08:03.288Z,51.20
2022-12-14T00:09:03.701Z,52.60
2022-12-14T00:10:04.047Z,49.70
2022-12-14T00:11:04.411Z,52.80
2022-12-14T00:12:04.830Z,50.70
2022-12-14T00:13:05.178Z,51.00
2022-12-14T00:14:05.549Z,51.70
2022-12-14T00:15:05.947Z,48.30
2022-12-14T00:16:06.398Z,50.00
2022-12-14T00:17:06.674Z,53.30
2022-12-14T00:18:07.261Z,49.50
2022-12-14T00:19:07.548Z,51.70
2022-12-14T00:20:07.864Z,49.40
2022-12-14T00:21:08.168Z,48.80
2022-12-14T00:22:08.533Z,48.10
2022-12-14T00:23:09.018Z,48.90
2022-12-14T00:24:09.369Z,48.10
2022-12-14T00:25:09.662Z,48.40
2022-12-14T00:26:10.024Z,49.20
2022-12-14T00:27:10.372Z,48.30
2022-12-14T00:28:10.716Z,51.40
2022-12-14T00:29:11.304Z,47.90
2022-12-14T00:30:11.437Z,48.50
2022-12-14T00:31:12.063Z,49.70
2022-12-14T00:32:12.196Z,48.40
2022-12-14T00:33:12.441Z,47.60
2022-12-14T00:34:12.863Z,46.70
2022-12-14T00:35:13.121Z,47.80
2022-12-14T00:36:13.471Z,49.10
2022-12-14T00:37:13.830Z,44.30
2022-12-14T00:38:14.188Z,45.80
2022-12-14T00:39:14.673Z,45.80
2022-12-14T00:40:14.926Z,46.20
2022-12-14T00:41:15.280Z,45.30
2022-12-14T00:42:15.637Z,45.50
2022-12-14T00:43:15.995Z,47.20
2022-12-14T00:44:16.388Z,47.50
2022-12-14T00:45:16.679Z,46.60
2022-12-14T00:46:17.163Z,46.50
2022-12-14T00:47:17.403Z,45.60
2022-12-14T00:48:17.731Z,45.90
2022-12-14T00:49:18.191Z,46.70
2022-12-14T00:50:18.428Z,44.80
2022-12-14T00:51:18.788Z,45.30
2022-12-14T00:52:19.153Z,43.80
2022-12-14T00:53:19.502Z,46.70
2022-12-14T00:54:19.930Z,46.30
2022-12-14T00:55:20.209Z,46.00
2022-12-14T00:56:20.572Z,47.40
2022-12-14T00:57:20.934Z,45.20
2022-12-14T00:58:21.288Z,45.10
2022-12-14T00:59:26.967Z,44.70
2022-12-14T01:00:22.013Z,46.60
2022-12-14T01:01:22.611Z,44.60
2022-12-14T01:02:22.832Z,44.40
2022-12-14T01:03:23.151Z,46.30
2022-12-14T01:04:23.644Z,45.20
2022-12-14T01:05:23.839Z,46.30
2022-12-14T01:06:24.207Z,45.20
2022-12-14T01:07:24.560Z,46.80
2022-12-14T01:08:24.933Z,46.40
2022-12-14T01:09:25.357Z,46.90
2022-12-14T01:10:25.668Z,44.40
2022-12-14T01:11:26.130Z,45.20
2022-12-14T01:12:26.406Z,44.00
2022-12-14T01:13:27.190Z,44.50
2022-12-14T01:14:27.155Z,46.60
2022-12-14T01:15:27.505Z,44.60
2022-12-14T01:16:28.032Z,45.80
2022-12-14T01:17:28.227Z,43.30
2022-12-14T01:18:28.592Z,44.70
2022-12-14T01:19:28.974Z,45.40
2022-12-14T01:20:29.357Z,44.90
2022-12-14T01:21:29.984Z,47.80
2022-12-14T01:22:30.115Z,44.20
2022-12-14T01:23:30.477Z,46.00
2022-12-14T01:24:30.889Z,43.40
2022-12-14T01:25:31.251Z,44.90
2022-12-14T01:26:31.656Z,46.00
2022-12-14T01:27:31.999Z,42.40
2022-12-14T01:28:32.370Z,43.90
2022-12-14T01:29:32.922Z,45.90
2022-12-14T01:30:33.127Z,45.10
2022-12-14T01:31:33.546Z,41.20
2022-12-14T01:32:33.860Z,43.90
2022-12-14T01:33:34.229Z,45.20
2022-12-14T01:34:34.681Z,44.80
2022-12-14T01:35:34.977Z,44.20
2022-12-14T01:36:35.336Z,43.80
2022-12-14T01:37:35.694Z,42.90
2022-12-14T01:38:36.077Z,43.60
2022-12-14T01:39:36.584Z,44.10
2022-12-14T01:40:36.832Z,43.50
2022-12-14T01:41:37.207Z,45.30
2022-12-14T01:42:37.594Z,43.70
2022-12-14T01:43:37.981Z,45.90
2022-12-14T01:44:38.376Z,41.10
2022-12-14T01:45:38.714Z,42.70
2022-12-14T01:46:39.161Z,44.40
2022-12-14T01:47:39.452Z,43.50
2022-12-14T01:48:39.806Z,43.90
2022-12-14T01:49:40.190Z,42.40
2022-12-14T01:50:40.539Z,44.00
2022-12-14T01:51:40.916Z,39.70
2022-12-14T01:52:41.247Z,40.50
2022-12-14T01:53:41.612Z,40.50
2022-12-14T01:54:42.002Z,41.90
2022-12-14T01:55:42.332Z,42.50
2022-12-14T01:56:42.728Z,39.00
2022-12-14T01:57:43.066Z,42.80
2022-12-14T01:58:43.431Z,43.10
2022-12-14T01:59:43.799Z,42.60
2022-12-14T02:00:44.169Z,40.10
2022-12-14T02:01:44.703Z,40.20
2022-12-14T02:02:45.070Z,42.20
2022-12-14T02:03:45.278Z,44.00
2022-12-14T02:04:45.627Z,39.90
2022-12-14T02:05:45.950Z,40.80
2022-12-14T02:06:46.365Z,42.50
2022-12-14T02:07:49.040Z,44.90
2022-12-14T02:08:47.065Z,41.90
2022-12-14T02:09:47.463Z,42.00
2022-12-14T02:10:47.810Z,40.40
2022-12-14T02:11:48.181Z,41.90
2022-12-14T02:12:48.520Z,41.10
2022-12-14T02:13:49.032Z,39.80
2022-12-14T02:14:49.290Z,41.40
2022-12-14T02:15:49.665Z,39.90
2022-12-14T02:16:49.964Z,41.40
2022-12-14T02:17:50.337Z,40.30
2022-12-14T02:18:50.731Z,40.60
2022-12-14T02:19:51.066Z,42.00
2022-12-14T02:20:51.436Z,39.70
2022-12-14T02:21:51.800Z,40.20
2022-12-14T02:22:52.170Z,39.20
2022-12-14T02:23:52.565Z,39.40
2022-12-14T02:24:52.934Z,38.60
2022-12-14T02:25:53.290Z,39.50
2022-12-14T02:26:53.656Z,40.40
2022-12-14T02:27:54.017Z,40.80
2022-12-14T02:28:54.406Z,41.70
2022-12-14T02:29:54.745Z,35.50
2022-12-14T02:30:55.180Z,40.50
2022-12-14T02:31:55.462Z,40.10
2022-12-14T02:32:55.816Z,39.40
2022-12-14T02:33:56.246Z,39.60
2022-12-14T02:34:56.559Z,39.80
2022-12-14T02:35:56.933Z,39.70
2022-12-14T02:36:57.302Z,39.60
2022-12-14T02:37:57.671Z,37.20
2022-12-14T02:38:58.171Z,37.20
2022-12-14T02:39:58.419Z,38.40
2022-12-14T02:40:58.766Z,38.40
2022-12-14T02:41:59.135Z,38.30
2022-12-14T02:42:59.519Z,38.60
2022-12-14T02:44:00.046Z,38.50
2022-12-14T02:45:00.268Z,37.30
2022-12-14T02:46:00.657Z,36.40
2022-12-14T02:47:01.095Z,39.80
2022-12-14T02:48:01.413Z,37.80
2022-12-14T02:49:01.829Z,38.60
2022-12-14T02:50:02.227Z,38.00
2022-12-14T02:51:02.609Z,36.00
2022-12-14T02:52:02.985Z,38.40
2022-12-14T02:53:03.360Z,38.30
2022-12-14T02:54:03.777Z,37.20
2022-12-14T02:55:04.200Z,37.40
2022-12-14T02:56:04.535Z,38.80
2022-12-14T02:57:04.909Z,39.20
2022-12-14T02:58:05.312Z,37.40
2022-12-14T02:59:05.690Z,38.20
2022-12-14T03:00:06.042Z,35.40
2022-12-14T03:01:06.502Z,36.50
2022-12-14T03:02:07.056Z,37.60
2022-12-14T03:03:07.265Z,37.10
2022-12-14T03:04:07.656Z,37.90
2022-12-14T03:05:08.024Z,37.80
2022-12-14T03:06:08.460Z,36.20
2022-12-14T03:07:08.809Z,35.10
2022-12-14T03:08:09.201Z,37.80
2022-12-14T03:09:09.630Z,36.90
2022-12-14T03:10:10.056Z,36.40
2022-12-14T03:11:10.361Z,38.70
2022-12-14T03:12:10.750Z,34.60
2022-12-14T03:13:11.122Z,35.90
2022-12-14T03:14:11.508Z,37.30
2022-12-14T03:15:11.916Z,37.90
2022-12-14T03:16:12.382Z,36.90
2022-12-14T03:17:17.592Z,36.00
2022-12-14T03:18:13.028Z,36.80
2022-12-14T03:19:13.405Z,37.80
2022-12-14T03:20:13.771Z,38.60
2022-12-14T03:21:14.160Z,35.80
2022-12-14T03:22:14.498Z,37.70
2022-12-14T03:23:14.872Z,33.50
2022-12-14T03:24:15.242Z,37.80
2022-12-14T03:25:15.649Z,35.90
2022-12-14T03:26:16.113Z,35.10
2022-12-14T03:27:16.369Z,36.70
2022-12-14T03:28:16.734Z,38.30
2022-12-14T03:29:17.101Z,34.70
2022-12-14T03:30:27.101Z,36.20
2022-12-14T03:31:17.992Z,34.50
2022-12-14T03:32:18.270Z,35.90
2022-12-14T03:33:18.611Z,36.30
2022-12-14T03:34:19.142Z,35.40
2022-12-14T03:35:19.339Z,36.00
2022-12-14T03:36:19.861Z,33.60
2022-12-14T03:37:20.057Z,37.20
2022-12-14T03:38:20.419Z,36.30
2022-12-14T03:39:20.786Z,34.40
2022-12-14T03:40:21.161Z,34.30
2022-12-14T03:41:21.875Z,32.60
2022-12-14T03:42:21.935Z,35.40
2022-12-14T03:43:22.211Z,33.40
2022-12-14T03:44:22.570Z,35.40
2022-12-14T03:45:23.131Z,36.30
2022-12-14T03:46:23.333Z,34.40
2022-12-14T03:47:23.700Z,36.10
2022-12-14T03:48:24.038Z,37.60
2022-12-14T03:49:24.406Z,35.90
2022-12-14T03:50:24.773Z,34.80
2022-12-14T03:51:25.143Z,34.00
2022-12-14T03:52:25.709Z,35.10
2022-12-14T03:53:26.428Z,34.80
2022-12-14T03:54:26.249Z,34.40
2022-12-14T03:55:26.634Z,34.80
2022-12-14T03:56:26.981Z,32.20
2022-12-14T03:57:27.389Z,34.80
2022-12-14T03:58:27.774Z,33.90
2022-12-14T03:59:28.114Z,34.10
2022-12-14T04:00:28.481Z,34.50
2022-12-14T04:01:28.990Z,35.70
2022-12-14T04:02:29.435Z,36.10
2022-12-14T04:03:29.931Z,36.10
2022-12-14T04:04:29.979Z,34.10
2022-12-14T04:05:30.354Z,35.40
2022-12-14T04:06:30.703Z,36.10
2022-12-14T04:07:31.082Z,35.90
2022-12-14T04:08:31.484Z,36.80
2022-12-14T04:09:31.813Z,36.10
2022-12-14T04:10:32.210Z,35.90
2022-12-14T04:11:32.553Z,33.80
2022-12-14T04:12:32.918Z,32.90
2022-12-14T04:13:33.373Z,34.00
2022-12-14T04:14:33.641Z,34.90
2022-12-14T04:15:34.011Z,36.20
2022-12-14T04:16:34.420Z,34.10
2022-12-14T04:17:34.728Z,33.10
2022-12-14T04:18:35.114Z,32.90
2022-12-14T04:19:35.723Z,32.50
2022-12-14T04:20:35.811Z,34.50
2022-12-14T04:21:36.171Z,31.50
2022-12-14T04:22:36.528Z,32.60
2022-12-14T04:23:36.912Z,33.20
2022-12-14T04:24:37.330Z,32.70
2022-12-14T04:25:37.669Z,34.80
2022-12-14T04:26:38.019Z,32.50
2022-12-14T04:27:38.376Z,32.20
2022-12-14T04:28:38.723Z,33.10
2022-12-14T04:29:42.737Z,32.20
2022-12-14T04:30:39.464Z,31.60
2022-12-14T04:31:39.878Z,33.30
2022-12-14T04:32:40.245Z,34.10
2022-12-14T04:33:40.563Z,31.90
2022-12-14T04:34:40.923Z,33.00
2022-12-14T04:35:41.523Z,31.40
2022-12-14T04:36:41.651Z,32.70
2022-12-14T04:37:42.011Z,32.50
2022-12-14T04:38:42.377Z,32.00
2022-12-14T04:39:42.784Z,34.40
2022-12-14T04:40:43.166Z,33.00
2022-12-14T04:41:43.870Z,31.50
2022-12-14T04:42:43.857Z,32.40
2022-12-14T04:43:44.187Z,31.50
2022-12-14T04:44:44.537Z,33.60
2022-12-14T04:45:44.968Z,31.60
2022-12-14T04:46:45.333Z,33.40
2022-12-14T04:47:45.668Z,32.70
2022-12-14T04:48:46.029Z,33.50
2022-12-14T04:49:46.395Z,32.50
2022-12-14T04:50:46.775Z,31.40
2022-12-14T04:51:47.188Z,32.30
2022-12-14T04:52:47.523Z,33.80
2022-12-14T04:53:47.865Z,32.30
2022-12-14T04:54:48.217Z,36.00
2022-12-14T04:55:48.954Z,31.70
2022-12-14T04:56:49.195Z,34.30
2022-12-14T04:57:49.270Z,32.50
2022-12-14T04:58:49.630Z,30.70
2022-12-14T04:59:50.002Z,34.90
2022-12-14T05:00:50.398Z,31.50
2022-12-14T05:01:51.084Z,32.00
2022-12-14T05:02:51.157Z,33.10
2022-12-14T05:03:51.462Z,32.30
2022-12-14T05:04:51.826Z,31.80
2022-12-14T05:05:52.190Z,32.30
2022-12-14T05:06:52.601Z,30.40
2022-12-14T05:07:52.974Z,34.10
2022-12-14T05:08:53.320Z,32.80
2022-12-14T05:09:53.696Z,32.70
2022-12-14T05:11:04.742Z,31.70
2022-12-14T05:11:54.886Z,31.50
2022-12-14T05:12:54.828Z,33.50
2022-12-14T05:13:55.190Z,33.40
2022-12-14T05:14:55.557Z,31.70
2022-12-14T05:15:55.931Z,32.90
2022-12-14T05:16:56.349Z,30.50
2022-12-14T05:17:56.708Z,32.60
2022-12-14T05:18:57.058Z,31.10
2022-12-14T05:19:57.406Z,29.90
2022-12-14T05:20:57.795Z,32.10
2022-12-14T05:21:58.157Z,32.60
2022-12-14T05:22:58.528Z,34.00
2022-12-14T05:23:59.002Z,31.90
2022-12-14T05:24:59.271Z,31.00
2022-12-14T05:25:59.655Z,32.20
2022-12-14T05:26:59.999Z,31.30
2022-12-14T05:28:00.351Z,33.80
2022-12-14T05:29:00.889Z,33.90
2022-12-14T05:30:01.085Z,33.80
2022-12-14T05:31:01.515Z,33.60
2022-12-14T05:32:01.851Z,30.30
2022-12-14T05:33:02.162Z,34.30
2022-12-14T05:34:02.531Z,31.70
2022-12-14T05:35:02.866Z,32.50
2022-12-14T05:36:03.256Z,31.00
2022-12-14T05:37:03.605Z,30.70
2022-12-14T05:38:03.987Z,34.60
2022-12-14T05:39:04.372Z,30.80
2022-12-14T05:40:04.767Z,31.70
2022-12-14T05:41:05.133Z,32.00
2022-12-14T05:42:05.486Z,31.00
2022-12-14T05:43:05.856Z,32.30
2022-12-14T05:44:06.227Z,30.40
2022-12-14T05:45:06.759Z,30.70
2022-12-14T05:46:07.020Z,31.40
2022-12-14T05:47:07.319Z,30.60
2022-12-14T05:48:07.686Z,31.60
2022-12-14T05:49:08.055Z,30.60
2022-12-14T05:50:08.450Z,32.50
2022-12-14T05:51:08.773Z,31.70
2022-12-14T05:52:09.176Z,31.00
2022-12-14T05:53:09.521Z,29.90
2022-12-14T05:54:09.904Z,32.70
2022-12-14T05:55:10.283Z,31.90
2022-12-14T05:56:10.673Z,32.20
2022-12-14T05:57:11.038Z,30.10
2022-12-14T05:58:11.381Z,32.60
2022-12-14T05:59:11.751Z,29.50
2022-12-14T06:00:12.127Z,31.10
2022-12-14T06:01:18.506Z,30.80
2022-12-14T06:02:13.073Z,32.60
2022-12-14T06:03:13.250Z,30.00
2022-12-14T06:04:13.672Z,29.60
2022-12-14T06:05:13.970Z,29.30
2022-12-14T06:06:14.334Z,31.00
2022-12-14T06:07:14.726Z,32.50
2022-12-14T06:08:15.101Z,30.90
2022-12-14T06:09:15.441Z,30.10
2022-12-14T06:10:15.812Z,31.00
2022-12-14T06:11:16.204Z,30.40
2022-12-14T06:12:16.589Z,29.60
2022-12-14T06:13:16.925Z,32.50
2022-12-14T06:14:17.328Z,32.30
2022-12-14T06:15:17.631Z,31.70
2022-12-14T06:16:18.052Z,30.90
2022-12-14T06:17:18.369Z,31.10
2022-12-14T06:18:18.771Z,32.00
2022-12-14T06:19:19.093Z,30.50
2022-12-14T06:20:19.501Z,32.70
2022-12-14T06:21:19.822Z,31.20
2022-12-14T06:22:20.273Z,31.00
2022-12-14T06:23:20.558Z,32.10
2022-12-14T06:24:20.931Z,30.80
2022-12-14T06:25:21.304Z,29.60
2022-12-14T06:26:21.738Z,29.90
2022-12-14T06:27:22.173Z,29.60
2022-12-14T06:28:22.428Z,30.90
2022-12-14T06:29:22.801Z,29.50
2022-12-14T06:30:23.169Z,31.80
2022-12-14T06:31:23.705Z,30.90
2022-12-14T06:32:24.052Z,30.30
2022-12-14T06:33:24.467Z,31.40
2022-12-14T06:34:28.470Z,29.80
2022-12-14T06:35:25.056Z,29.40
2022-12-14T06:36:25.430Z,27.60
2022-12-14T06:37:26.033Z,30.50
2022-12-14T06:38:26.171Z,28.60
2022-12-14T06:39:26.566Z,28.70
2022-12-14T06:40:26.942Z,28.30
2022-12-14T06:41:27.337Z,28.90
2022-12-14T06:42:27.701Z,30.80
2022-12-14T06:43:28.501Z,29.30
2022-12-14T06:44:28.444Z,27.70
2022-12-14T06:45:28.783Z,26.70
2022-12-14T06:46:29.223Z,29.00
2022-12-14T06:47:29.519Z,27.90
2022-12-14T06:48:29.997Z,28.50
2022-12-14T06:49:30.256Z,27.40
2022-12-14T06:50:30.628Z,28.40
2022-12-14T06:51:31.024Z,28.20
2022-12-14T06:52:31.353Z,29.20
2022-12-14T06:53:31.876Z,27.90
2022-12-14T06:54:32.101Z,27.30
2022-12-14T06:55:32.468Z,27.00
2022-12-14T06:56:32.860Z,28.70
2022-12-14T06:57:33.203Z,28.80
2022-12-14T06:58:33.761Z,28.80
2022-12-14T06:59:33.941Z,30.10
2022-12-14T07:00:34.314Z,25.80
2022-12-14T07:01:34.956Z,27.50
2022-12-14T07:02:35.224Z,27.20
2022-12-14T07:03:35.882Z,28.00
2022-12-14T07:04:35.804Z,28.60
2022-12-14T07:05:36.170Z,27.80
2022-12-14T07:06:36.563Z,26.70
2022-12-14T07:07:36.956Z,27.40
2022-12-14T07:08:37.268Z,27.30
2022-12-14T07:09:37.661Z,27.00
2022-12-14T07:10:38.143Z,27.00
2022-12-14T07:11:38.405Z,28.00
2022-12-14T07:12:38.751Z,28.10
2022-12-14T07:13:39.139Z,25.60
2022-12-14T07:14:39.513Z,27.10
2022-12-14T07:15:40.093Z,26.70
2022-12-14T07:16:42.605Z,26.60
2022-12-14T07:17:40.598Z,28.30
2022-12-14T07:18:40.953Z,27.00
2022-12-14T07:19:41.344Z,26.80
2022-12-14T07:20:41.713Z,26.40
2022-12-14T07:21:42.067Z,26.80
2022-12-14T07:22:42.464Z,27.00
2022-12-14T07:23:43.080Z,28.60
2022-12-14T07:24:43.193Z,28.10
2022-12-14T07:25:43.562Z,27.30
2022-12-14T07:26:43.986Z,28.60
2022-12-14T07:27:44.327Z,27.70
2022-12-14T07:28:44.661Z,26.40
2022-12-14T07:29:45.042Z,26.40
2022-12-14T07:30:45.549Z,28.60
2022-12-14T07:31:49.363Z,26.20
2022-12-14T07:32:46.191Z,28.40
2022-12-14T07:33:46.517Z,27.10
2022-12-14T07:34:46.870Z,28.20
2022-12-14T07:35:47.222Z,26.20
2022-12-14T07:36:47.575Z,25.70
2022-12-14T07:37:49.283Z,26.20
2022-12-14T07:38:48.289Z,27.50
2022-12-14T07:39:48.661Z,26.90
2022-12-14T07:40:49.052Z,26.50
2022-12-14T07:41:49.498Z,25.20
2022-12-14T07:42:49.832Z,27.70
2022-12-14T07:43:50.394Z,25.40
2022-12-14T07:44:50.614Z,26.30
2022-12-14T07:45:50.998Z,26.00
2022-12-14T07:46:51.471Z,27.50
2022-12-14T07:47:51.840Z,25.20
2022-12-14T07:48:52.161Z,25.70
2022-12-14T07:49:52.515Z,26.40
2022-12-14T07:50:52.903Z,28.10
2022-12-14T07:51:53.251Z,30.10
2022-12-14T07:52:53.617Z,27.10
2022-12-14T07:53:54.010Z,29.40
2022-12-14T07:54:54.345Z,27.40
2022-12-14T07:55:54.721Z,26.50
2022-12-14T07:56:55.099Z,26.60
2022-12-14T07:57:55.436Z,26.00
2022-12-14T07:58:55.818Z,26.60
2022-12-14T07:59:57.674Z,24.90
2022-12-14T08:00:56.546Z,26.10
2022-12-14T08:01:57.000Z,27.90
2022-12-14T08:02:57.285Z,25.30
2022-12-14T08:03:57.637Z,25.10
2022-12-14T08:04:58.134Z,26.30
2022-12-14T08:05:58.375Z,24.40
2022-12-14T08:06:58.744Z,25.90
2022-12-14T08:07:59.107Z,25.70
2022-12-14T08:08:59.473Z,27.20
2022-12-14T08:09:59.869Z,26.30
2022-12-14T08:11:00.217Z,24.80
2022-12-14T08:12:00.621Z,25.30
2022-12-14T08:13:01.001Z,24.10
2022-12-14T08:14:01.339Z,24.80
2022-12-14T08:15:02.035Z,24.60
2022-12-14T08:16:02.099Z,24.40
2022-12-14T08:17:02.460Z,24.10
2022-12-14T08:18:02.819Z,27.70
2022-12-14T08:19:03.266Z,24.40
2022-12-14T08:20:03.572Z,25.10
2022-12-14T08:21:03.900Z,25.40
2022-12-14T08:22:04.295Z,25.70
2022-12-14T08:23:04.619Z,25.10
2022-12-14T08:24:04.977Z,25.80
2022-12-14T08:25:05.367Z,27.80
2022-12-14T08:26:05.706Z,26.30
2022-12-14T08:27:06.087Z,25.90
2022-12-14T08:28:06.423Z,27.00
2022-12-14T08:29:06.795Z,26.90
2022-12-14T08:30:07.234Z,28.20
2022-12-14T08:31:07.612Z,28.70
2022-12-14T08:32:07.914Z,31.10
2022-12-14T08:33:08.279Z,31.60
2022-12-14T08:34:08.662Z,29.50
2022-12-14T08:35:09.037Z,30.70
2022-12-14T08:36:09.435Z,31.00
2022-12-14T08:37:09.747Z,31.20
2022-12-14T08:38:10.123Z,27.00
2022-12-14T08:39:10.520Z,28.90
2022-12-14T08:40:10.895Z,29.50
2022-12-14T08:41:11.415Z,28.00
2022-12-14T08:42:11.679Z,29.00
2022-12-14T08:43:12.040Z,26.70
2022-12-14T08:44:12.409Z,27.80
2022-12-14T08:45:12.792Z,26.00
2022-12-14T08:46:13.245Z,27.10
2022-12-14T08:47:13.518Z,25.70
2022-12-14T08:48:13.888Z,26.80
2022-12-14T08:49:14.255Z,25.70
2022-12-14T08:50:14.615Z,26.50
2022-12-14T08:51:15.017Z,25.30
2022-12-14T08:52:15.334Z,26.30
2022-12-14T08:53:15.707Z,26.70
2022-12-14T08:54:16.065Z,24.00
2022-12-14T08:55:16.429Z,24.90
2022-12-14T08:56:16.809Z,25.60
2022-12-14T08:57:17.141Z,26.00
2022-12-14T08:58:17.527Z,25.10
2022-12-14T08:59:43.967Z,26.00
2022-12-14T09:00:18.226Z,25.60
2022-12-14T09:01:18.681Z,25.50
2022-12-14T09:02:19.081Z,25.30
2022-12-14T09:03:19.301Z,24.60
2022-12-14T09:04:19.606Z,27.30
2022-12-14T09:05:20.202Z,24.70
2022-12-14T09:06:20.289Z,26.30
2022-12-14T09:07:20.638Z,27.40
2022-12-14T09:08:20.984Z,23.60
2022-12-14T09:09:21.342Z,25.70
2022-12-14T09:10:21.730Z,26.20
2022-12-14T09:11:22.094Z,25.30
2022-12-14T09:12:22.414Z,28.90
2022-12-14T09:13:22.770Z,25.70
2022-12-14T09:14:23.175Z,28.70
2022-12-14T09:15:23.479Z,27.00
2022-12-14T09:16:23.896Z,26.60
2022-12-14T09:17:24.149Z,25.60
2022-12-14T09:18:24.497Z,25.50
2022-12-14T09:19:24.795Z,25.70
2022-12-14T09:20:25.119Z,26.70
2022-12-14T09:21:25.493Z,25.20
2022-12-14T09:22:25.905Z,25.90
2022-12-14T09:23:26.423Z,24.70
2022-12-14T09:24:26.481Z,27.20
2022-12-14T09:25:26.844Z,24.90
2022-12-14T09:26:27.210Z,25.50
2022-12-14T09:27:27.515Z,24.60
2022-12-14T09:28:27.851Z,27.20
2022-12-14T09:29:28.193Z,26.90
2022-12-14T09:30:28.641Z,26.50
2022-12-14T09:31:29.148Z,26.40
2022-12-14T09:32:29.191Z,26.20
2022-12-14T09:33:29.972Z,26.90
2022-12-14T09:34:29.858Z,24.80
2022-12-14T09:35:30.193Z,25.20
2022-12-14T09:36:30.543Z,25.70
2022-12-14T09:37:30.852Z,25.10
2022-12-14T09:38:31.234Z,26.20
2022-12-14T09:39:31.551Z,27.00
2022-12-14T09:40:31.904Z,26.70
2022-12-14T09:41:32.226Z,26.90
2022-12-14T09:42:32.565Z,25.90
2022-12-14T09:43:36.882Z,26.20
2022-12-14T09:44:33.230Z,25.30
2022-12-14T09:45:33.643Z,27.30
2022-12-14T09:46:33.868Z,26.10
2022-12-14T09:47:34.189Z,25.30
2022-12-14T09:48:34.566Z,26.80
2022-12-14T09:49:34.924Z,26.80
2022-12-14T09:50:35.240Z,25.40
2022-12-14T09:51:35.699Z,26.40
2022-12-14T09:52:35.997Z,24.60
2022-12-14T09:53:36.280Z,27.30
2022-12-14T09:54:36.687Z,26.70
2022-12-14T09:55:36.981Z,26.60
2022-12-14T09:56:37.327Z,24.40
2022-12-14T09:57:37.687Z,25.30
2022-12-14T09:58:38.008Z,25.60
2022-12-14T09:59:38.389Z,25.70
2022-12-14T10:00:38.796Z,24.40
2022-12-14T10:01:39.188Z,30.50
2022-12-14T10:02:39.606Z,40.60
2022-12-14T10:03:39.890Z,28.80
2022-12-14T10:04:40.177Z,27.60
2022-12-14T10:05:40.484Z,28.20
2022-12-14T10:06:40.839Z,24.50
2022-12-14T10:07:41.205Z,26.60
2022-12-14T10:08:41.557Z,25.20
2022-12-14T10:09:41.946Z,24.60
2022-12-14T10:10:42.304Z,24.70
2022-12-14T10:11:42.594Z,26.30
2022-12-14T10:12:42.937Z,24.90
2022-12-14T10:13:43.281Z,26.70
2022-12-14T10:14:44.584Z,24.70
2022-12-14T10:15:44.132Z,23.70
2022-12-14T10:16:49.966Z,27.90
2022-12-14T10:17:44.700Z,26.50
2022-12-14T10:19:01.952Z,27.20
2022-12-14T10:19:45.375Z,25.90
2022-12-14T10:20:45.906Z,25.90
2022-12-14T10:21:46.045Z,27.20
2022-12-14T10:22:46.381Z,26.00
2022-12-14T10:23:46.719Z,27.40
2022-12-14T10:24:47.053Z,28.50
2022-12-14T10:25:47.442Z,26.10
2022-12-14T10:26:47.749Z,25.10
2022-12-14T10:28:09.730Z,25.70
2022-12-14T10:28:48.512Z,27.20
2022-12-14T10:29:48.751Z,27.40
2022-12-14T10:30:49.094Z,27.90
2022-12-14T10:31:49.537Z,28.00
2022-12-14T10:32:49.777Z,27.80
2022-12-14T10:33:50.120Z,28.70
2022-12-14T10:34:50.458Z,33.60
2022-12-14T10:35:50.807Z,30.20
2022-12-14T10:36:51.191Z,29.10
2022-12-14T10:37:51.498Z,29.80
2022-12-14T10:38:51.845Z,28.00
2022-12-14T10:39:52.199Z,34.30
2022-12-14T10:40:52.551Z,38.40
2022-12-14T10:41:52.924Z,39.90
2022-12-14T10:42:53.403Z,33.00
2022-12-14T10:43:53.606Z,30.30
2022-12-14T10:45:04.373Z,34.00
2022-12-14T10:45:54.361Z,36.60
2022-12-14T10:46:54.865Z,34.20
2022-12-14T10:47:55.016Z,37.40
2022-12-14T10:48:55.384Z,30.50
2022-12-14T10:49:55.732Z,28.10
2022-12-14T10:50:56.078Z,34.70
2022-12-14T10:51:56.564Z,37.80
2022-12-14T10:52:56.770Z,32.20
2022-12-14T10:53:57.121Z,28.90
2022-12-14T10:54:57.472Z,28.70
2022-12-14T10:55:57.873Z,26.90
2022-12-14T10:56:58.418Z,27.00
2022-12-14T10:57:58.560Z,27.20
2022-12-14T10:58:58.928Z,28.20
2022-12-14T11:00:09.471Z,27.70
2022-12-14T11:00:59.787Z,27.80
2022-12-14T11:02:00.382Z,28.00
2022-12-14T11:03:00.452Z,28.80
2022-12-14T11:04:00.709Z,30.90
2022-12-14T11:05:01.050Z,29.60
2022-12-14T11:06:01.407Z,28.20
2022-12-14T11:07:01.805Z,29.80
2022-12-14T11:08:02.165Z,26.50
2022-12-14T11:09:02.476Z,27.50
2022-12-14T11:10:02.837Z,26.40
2022-12-14T11:11:03.216Z,27.60
2022-12-14T11:12:03.624Z,27.20
2022-12-14T11:13:03.878Z,25.70
2022-12-14T11:14:04.264Z,25.00
2022-12-14T11:15:04.573Z,25.50
2022-12-14T11:16:04.921Z,25.20
2022-12-14T11:17:05.424Z,24.50
2022-12-14T11:18:05.828Z,25.00
2022-12-14T11:19:06.022Z,24.40
2022-12-14T11:20:06.356Z,23.60
2022-12-14T11:21:06.705Z,24.90
2022-12-14T11:22:07.055Z,24.10
2022-12-14T11:23:07.452Z,25.50
2022-12-14T11:24:07.791Z,23.50
2022-12-14T11:25:08.160Z,24.20
2022-12-14T11:26:08.529Z,23.90
2022-12-14T11:27:08.884Z,24.50
2022-12-14T11:28:09.294Z,26.30
2022-12-14T11:29:09.613Z,26.50
2022-12-14T11:30:09.994Z,27.40
2022-12-14T11:31:10.466Z,26.70
2022-12-14T11:32:10.851Z,28.00
2022-12-14T11:33:11.117Z,26.50
2022-12-14T11:34:11.438Z,28.10
2022-12-14T11:35:11.797Z,26.80
2022-12-14T11:36:12.148Z,27.70
2022-12-14T11:37:12.497Z,27.10
2022-12-14T11:38:12.888Z,28.70
2022-12-14T11:39:13.193Z,27.60
2022-12-14T11:40:13.644Z,26.10
2022-12-14T11:41:13.877Z,27.80
2022-12-14T11:42:14.223Z,26.20
2022-12-14T11:43:14.592Z,27.30
2022-12-14T11:44:14.955Z,26.40
2022-12-14T11:45:15.268Z,25.30
2022-12-14T11:46:15.643Z,24.90
2022-12-14T11:47:15.978Z,24.40
2022-12-14T11:48:16.347Z,25.90
2022-12-14T11:49:16.717Z,24.70
2022-12-14T11:50:17.040Z,24.30
2022-12-14T11:51:17.390Z,23.50
2022-12-14T11:52:17.750Z,33.40
2022-12-14T11:53:18.103Z,42.40
2022-12-14T11:54:18.485Z,43.20
2022-12-14T11:55:24.731Z,37.60
2022-12-14T11:56:19.144Z,30.10
2022-12-14T11:57:19.502Z,28.40
2022-12-14T11:58:19.856Z,29.00
2022-12-14T11:59:20.199Z,30.50
2022-12-14T12:00:20.567Z,27.80
2022-12-14T12:01:20.961Z,28.70
2022-12-14T12:02:21.319Z,24.90
2022-12-14T12:03:21.711Z,21.90
2022-12-14T12:04:21.923Z,22.60
2022-12-14T12:05:22.285Z,22.70
2022-12-14T12:06:22.680Z,22.50
2022-12-14T12:07:22.979Z,29.10
2022-12-14T12:08:23.329Z,30.50
2022-12-14T12:09:23.686Z,27.80
2022-12-14T12:10:24.070Z,24.90
2022-12-14T12:11:24.349Z,27.00
2022-12-14T12:12:24.695Z,25.70
2022-12-14T12:13:25.100Z,25.30
2022-12-14T12:14:25.370Z,23.50
2022-12-14T12:15:25.863Z,24.20
2022-12-14T12:16:26.136Z,24.60
2022-12-14T12:17:26.432Z,24.80
2022-12-14T12:18:27.344Z,26.80
2022-12-14T12:19:27.095Z,32.70
2022-12-14T12:20:27.434Z,28.10
2022-12-14T12:21:27.783Z,25.10
2022-12-14T12:22:28.168Z,24.40
2022-12-14T12:23:28.878Z,23.50
2022-12-14T12:24:28.802Z,22.00
2022-12-14T12:25:35.133Z,20.70
2022-12-14T12:26:29.512Z,22.30
2022-12-14T12:27:29.775Z,22.20
2022-12-14T12:28:30.597Z,22.10
2022-12-14T12:29:30.453Z,21.80
2022-12-14T12:30:30.809Z,21.20
2022-12-14T12:31:31.310Z,22.30
2022-12-14T12:32:31.522Z,21.70
2022-12-14T12:33:31.863Z,21.70
2022-12-14T12:34:32.230Z,22.70
2022-12-14T12:35:32.646Z,22.00
2022-12-14T12:36:32.888Z,22.20
2022-12-14T12:37:33.237Z,22.00
2022-12-14T12:38:33.599Z,22.60
2022-12-14T12:39:33.920Z,21.60
2022-12-14T12:40:34.297Z,23.40
2022-12-14T12:41:34.632Z,21.40
2022-12-14T12:42:34.951Z,21.60
2022-12-14T12:43:35.305Z,22.90
2022-12-14T12:44:35.622Z,23.90
2022-12-14T12:45:36.056Z,21.30
2022-12-14T12:46:53.452Z,20.10
2022-12-14T12:47:46.566Z,21.10
2022-12-14T12:48:37.001Z,20.30
2022-12-14T12:49:37.346Z,22.90
2022-12-14T12:50:37.740Z,20.90
2022-12-14T12:51:38.052Z,21.60
2022-12-14T12:52:38.407Z,21.70
2022-12-14T12:53:38.758Z,21.90
2022-12-14T12:54:39.124Z,20.20
2022-12-14T12:55:39.430Z,21.40
2022-12-14T12:56:39.776Z,20.00